sensor_id;sensor_type;location;lat;lon;timestamp;P1;durP1;ratioP1;P2;durP2;ratioP2
5923;SDS011;2987;50.884;14.818;2023-04-24T02:17:36;9.30;;;6.37;;
5923;SDS011;2987;50.884;14.818;2023-04-24T02:20:03;7.50;;;6.70;;
5923;SDS011;2987;50.884;14.818;2023-04-24T02:22:30;8.50;;;6.93;;
5923;SDS011;2987;50.884;14.818;2023-04-24T02:25:00;8.30;;;7.07;;
5923;SDS011;2987;50.884;14.818;2023-04-24T02:27:27;8.40;;;7.10;;
5923;SDS011;2987;50.884;14.818;2023-04-24T02:29:53;11.60;;;8.57;;
5923;SDS011;2987;50.884;14.818;2023-04-24T02:32:19;9.10;;;7.83;;
5923;SDS011;2987;50.884;14.818;2023-04-24T02:34:45;9.47;;;7.37;;
5923;SDS011;2987;50.884;14.818;2023-04-24T02:37:12;7.90;;;7.10;;
5923;SDS011;2987;50.884;14.818;2023-04-24T02:39:38;7.67;;;6.70;;
5923;SDS011;2987;50.884;14.818;2023-04-24T02:42:04;8.10;;;6.93;;
5923;SDS011;2987;50.884;14.818;2023-04-24T02:44:30;6.73;;;6.03;;
5923;SDS011;2987;50.884;14.818;2023-04-24T02:46:56;6.97;;;6.27;;
5923;SDS011;2987;50.884;14.818;2023-04-24T02:49:22;11.53;;;6.63;;
5923;SDS011;2987;50.884;14.818;2023-04-24T02:51:48;8.37;;;6.93;;
5923;SDS011;2987;50.884;14.818;2023-04-24T02:54:14;8.17;;;7.10;;
5923;SDS011;2987;50.884;14.818;2023-04-24T02:56:40;8.20;;;7.40;;
5923;SDS011;2987;50.884;14.818;2023-04-24T02:59:07;10.50;;;7.80;;
5923;SDS011;2987;50.884;14.818;2023-04-24T03:01:33;8.50;;;7.40;;
5923;SDS011;2987;50.884;14.818;2023-04-24T03:03:59;9.57;;;7.33;;
5923;SDS011;2987;50.884;14.818;2023-04-24T03:06:25;9.23;;;7.63;;
5923;SDS011;2987;50.884;14.818;2023-04-24T03:08:52;8.47;;;6.87;;
5923;SDS011;2987;50.884;14.818;2023-04-24T03:11:19;9.87;;;6.93;;
5923;SDS011;2987;50.884;14.818;2023-04-24T03:13:45;7.60;;;6.43;;
5923;SDS011;2987;50.884;14.818;2023-04-24T03:16:11;8.67;;;6.53;;
5923;SDS011;2987;50.884;14.818;2023-04-24T03:18:37;7.53;;;6.47;;
5923;SDS011;2987;50.884;14.818;2023-04-24T03:21:05;8.30;;;6.60;;
5923;SDS011;2987;50.884;14.818;2023-04-24T03:23:31;7.47;;;6.73;;
5923;SDS011;2987;50.884;14.818;2023-04-24T03:25:57;7.50;;;6.57;;
5923;SDS011;2987;50.884;14.818;2023-04-24T03:28:24;7.00;;;6.30;;
5923;SDS011;2987;50.884;14.818;2023-04-24T03:30:56;8.67;;;6.77;;
5923;SDS011;2987;50.884;14.818;2023-04-24T03:33:24;9.73;;;6.93;;
5923;SDS011;2987;50.884;14.818;2023-04-24T03:35:58;9.73;;;6.87;;
5923;SDS011;2987;50.884;14.818;2023-04-24T03:38:25;7.27;;;6.00;;
5923;SDS011;2987;50.884;14.818;2023-04-24T03:40:58;8.10;;;6.90;;
5923;SDS011;2987;50.884;14.818;2023-04-24T03:43:44;6.73;;;6.07;;
5923;SDS011;2987;50.884;14.818;2023-04-24T03:46:10;7.00;;;6.30;;
5923;SDS011;2987;50.884;14.818;2023-04-24T03:48:42;7.73;;;5.50;;
5923;SDS011;2987;50.884;14.818;2023-04-24T03:51:09;9.07;;;6.73;;
5923;SDS011;2987;50.884;14.818;2023-04-24T03:53:38;6.77;;;6.17;;
5923;SDS011;2987;50.884;14.818;2023-04-24T03:56:04;8.37;;;6.83;;
5923;SDS011;2987;50.884;14.818;2023-04-24T03:58:31;8.83;;;6.33;;
5923;SDS011;2987;50.884;14.818;2023-04-24T04:00:57;7.13;;;6.43;;
5923;SDS011;2987;50.884;14.818;2023-04-24T04:03:43;10.37;;;6.50;;
5923;SDS011;2987;50.884;14.818;2023-04-24T04:06:09;8.17;;;6.77;;
5923;SDS011;2987;50.884;14.818;2023-04-24T04:08:36;8.53;;;6.70;;
5923;SDS011;2987;50.884;14.818;2023-04-24T04:11:02;9.57;;;6.53;;
5923;SDS011;2987;50.884;14.818;2023-04-24T04:13:28;10.07;;;6.10;;
5923;SDS011;2987;50.884;14.818;2023-04-24T04:15:55;6.63;;;5.93;;
5923;SDS011;2987;50.884;14.818;2023-04-24T04:18:21;9.27;;;6.30;;
5923;SDS011;2987;50.884;14.818;2023-04-24T04:20:48;8.37;;;5.80;;
5923;SDS011;2987;50.884;14.818;2023-04-24T04:23:15;7.13;;;5.87;;
5923;SDS011;2987;50.884;14.818;2023-04-24T04:25:51;6.70;;;5.50;;
5923;SDS011;2987;50.884;14.818;2023-04-24T04:28:21;8.93;;;5.30;;
5923;SDS011;2987;50.884;14.818;2023-04-24T04:30:48;5.47;;;4.97;;
5923;SDS011;2987;50.884;14.818;2023-04-24T04:33:15;6.23;;;5.53;;
5923;SDS011;2987;50.884;14.818;2023-04-24T04:35:41;6.10;;;5.50;;
5923;SDS011;2987;50.884;14.818;2023-04-24T04:38:08;7.33;;;5.50;;
5923;SDS011;2987;50.884;14.818;2023-04-24T04:40:42;6.33;;;5.63;;
5923;SDS011;2987;50.884;14.818;2023-04-24T04:43:10;7.43;;;5.43;;
5923;SDS011;2987;50.884;14.818;2023-04-24T04:45:45;6.30;;;5.70;;
5923;SDS011;2987;50.884;14.818;2023-04-24T04:48:33;6.63;;;5.67;;
5923;SDS011;2987;50.884;14.818;2023-04-24T04:51:00;6.97;;;6.20;;
5923;SDS011;2987;50.884;14.818;2023-04-24T04:53:26;12.20;;;6.80;;
5923;SDS011;2987;50.884;14.818;2023-04-24T04:55:52;8.87;;;7.37;;
5923;SDS011;2987;50.884;14.818;2023-04-24T04:58:21;7.60;;;6.50;;
5923;SDS011;2987;50.884;14.818;2023-04-24T05:00:52;6.17;;;5.57;;
5923;SDS011;2987;50.884;14.818;2023-04-24T05:03:25;6.60;;;5.73;;
5923;SDS011;2987;50.884;14.818;2023-04-24T05:05:57;7.20;;;6.50;;
5923;SDS011;2987;50.884;14.818;2023-04-24T05:08:24;14.47;;;7.40;;
5923;SDS011;2987;50.884;14.818;2023-04-24T05:10:50;8.73;;;7.30;;
5923;SDS011;2987;50.884;14.818;2023-04-24T05:13:16;7.33;;;6.33;;
5923;SDS011;2987;50.884;14.818;2023-04-24T05:15:42;8.40;;;6.80;;
5923;SDS011;2987;50.884;14.818;2023-04-24T05:18:08;7.83;;;6.50;;
5923;SDS011;2987;50.884;14.818;2023-04-24T05:20:34;8.83;;;6.83;;
5923;SDS011;2987;50.884;14.818;2023-04-24T05:23:00;9.87;;;6.50;;
5923;SDS011;2987;50.884;14.818;2023-04-24T05:25:27;7.13;;;6.43;;
5923;SDS011;2987;50.884;14.818;2023-04-24T05:27:57;8.47;;;7.17;;
5923;SDS011;2987;50.884;14.818;2023-04-24T05:30:23;9.80;;;7.33;;
5923;SDS011;2987;50.884;14.818;2023-04-24T05:32:50;9.37;;;7.30;;
5923;SDS011;2987;50.884;14.818;2023-04-24T05:35:16;11.80;;;6.83;;
5923;SDS011;2987;50.884;14.818;2023-04-24T05:37:42;8.73;;;6.60;;
5923;SDS011;2987;50.884;14.818;2023-04-24T05:40:09;6.87;;;5.67;;
5923;SDS011;2987;50.884;14.818;2023-04-24T05:42:35;6.50;;;5.30;;
5923;SDS011;2987;50.884;14.818;2023-04-24T05:45:01;5.37;;;4.87;;
5923;SDS011;2987;50.884;14.818;2023-04-24T05:47:28;5.50;;;5.00;;
5923;SDS011;2987;50.884;14.818;2023-04-24T05:49:55;5.93;;;5.30;;
5923;SDS011;2987;50.884;14.818;2023-04-24T05:52:21;5.63;;;5.00;;
5923;SDS011;2987;50.884;14.818;2023-04-24T05:54:48;5.50;;;5.00;;
5923;SDS011;2987;50.884;14.818;2023-04-24T05:57:19;5.47;;;4.97;;
5923;SDS011;2987;50.884;14.818;2023-04-24T05:59:51;6.57;;;4.77;;
5923;SDS011;2987;50.884;14.818;2023-04-24T06:02:19;5.83;;;5.23;;
5923;SDS011;2987;50.884;14.818;2023-04-24T06:04:45;6.83;;;4.97;;
5923;SDS011;2987;50.884;14.818;2023-04-24T06:07:10;5.13;;;4.63;;
5923;SDS011;2987;50.884;14.818;2023-04-24T06:09:37;5.00;;;4.50;;
5923;SDS011;2987;50.884;14.818;2023-04-24T06:12:03;4.93;;;4.50;;
5923;SDS011;2987;50.884;14.818;2023-04-24T06:14:44;4.80;;;4.40;;
5923;SDS011;2987;50.884;14.818;2023-04-24T06:17:21;5.80;;;4.80;;
5923;SDS011;2987;50.884;14.818;2023-04-24T06:19:47;6.30;;;4.90;;
5923;SDS011;2987;50.884;14.818;2023-04-24T06:22:13;5.93;;;5.00;;
5923;SDS011;2987;50.884;14.818;2023-04-24T06:27:06;5.13;;;4.50;;
5923;SDS011;2987;50.884;14.818;2023-04-24T06:29:33;6.13;;;4.53;;
5923;SDS011;2987;50.884;14.818;2023-04-24T06:31:59;7.70;;;5.40;;
5923;SDS011;2987;50.884;14.818;2023-04-24T06:34:25;4.83;;;4.33;;
5923;SDS011;2987;50.884;14.818;2023-04-24T06:36:51;8.43;;;4.73;;
5923;SDS011;2987;50.884;14.818;2023-04-24T06:39:17;6.07;;;4.23;;
5923;SDS011;2987;50.884;14.818;2023-04-24T06:41:43;7.40;;;4.43;;
5923;SDS011;2987;50.884;14.818;2023-04-24T06:44:18;6.43;;;4.53;;
5923;SDS011;2987;50.884;14.818;2023-04-24T06:46:44;5.33;;;4.00;;
5923;SDS011;2987;50.884;14.818;2023-04-24T06:49:10;5.00;;;4.50;;
5923;SDS011;2987;50.884;14.818;2023-04-24T06:51:36;5.90;;;4.33;;
5923;SDS011;2987;50.884;14.818;2023-04-24T06:54:02;5.00;;;4.23;;
5923;SDS011;2987;50.884;14.818;2023-04-24T06:56:28;4.60;;;3.80;;
5923;SDS011;2987;50.884;14.818;2023-04-24T06:58:54;4.97;;;4.17;;
5923;SDS011;2987;50.884;14.818;2023-04-24T07:01:20;7.57;;;4.00;;
5923;SDS011;2987;50.884;14.818;2023-04-24T07:03:46;4.70;;;3.80;;
5923;SDS011;2987;50.884;14.818;2023-04-24T07:06:12;4.50;;;4.10;;
5923;SDS011;2987;50.884;14.818;2023-04-24T07:08:41;5.47;;;4.80;;
5923;SDS011;2987;50.884;14.818;2023-04-24T07:11:07;5.50;;;4.27;;
5923;SDS011;2987;50.884;14.818;2023-04-24T07:13:33;6.80;;;4.70;;
5923;SDS011;2987;50.884;14.818;2023-04-24T07:16:01;5.07;;;4.33;;
5923;SDS011;2987;50.884;14.818;2023-04-24T07:18:27;7.37;;;5.00;;
5923;SDS011;2987;50.884;14.818;2023-04-24T07:20:53;5.47;;;4.70;;
5923;SDS011;2987;50.884;14.818;2023-04-24T07:23:19;6.40;;;5.03;;
5923;SDS011;2987;50.884;14.818;2023-04-24T07:25:45;5.07;;;4.67;;
5923;SDS011;2987;50.884;14.818;2023-04-24T07:28:12;6.73;;;5.53;;
5923;SDS011;2987;50.884;14.818;2023-04-24T07:30:38;5.50;;;5.00;;
5923;SDS011;2987;50.884;14.818;2023-04-24T07:35:30;5.97;;;5.40;;
5923;SDS011;2987;50.884;14.818;2023-04-24T07:37:56;6.40;;;5.60;;
5923;SDS011;2987;50.884;14.818;2023-04-24T07:42:48;6.80;;;6.10;;
5923;SDS011;2987;50.884;14.818;2023-04-24T07:45:15;6.53;;;5.80;;
5923;SDS011;2987;50.884;14.818;2023-04-24T07:47:41;7.97;;;6.47;;
5923;SDS011;2987;50.884;14.818;2023-04-24T07:50:08;7.20;;;6.47;;
5923;SDS011;2987;50.884;14.818;2023-04-24T07:52:34;7.47;;;6.77;;
5923;SDS011;2987;50.884;14.818;2023-04-24T07:55:00;7.00;;;6.00;;
5923;SDS011;2987;50.884;14.818;2023-04-24T07:57:27;8.17;;;6.10;;
5923;SDS011;2987;50.884;14.818;2023-04-24T07:59:54;6.93;;;6.23;;
5923;SDS011;2987;50.884;14.818;2023-04-24T08:02:20;7.10;;;6.50;;
5923;SDS011;2987;50.884;14.818;2023-04-24T08:04:52;7.80;;;6.70;;
5923;SDS011;2987;50.884;14.818;2023-04-24T08:07:19;9.00;;;6.87;;
5923;SDS011;2987;50.884;14.818;2023-04-24T08:09:45;8.20;;;7.37;;
5923;SDS011;2987;50.884;14.818;2023-04-24T08:12:12;8.53;;;7.33;;
5923;SDS011;2987;50.884;14.818;2023-04-24T08:14:37;10.73;;;7.73;;
5923;SDS011;2987;50.884;14.818;2023-04-24T08:17:04;9.20;;;6.83;;
5923;SDS011;2987;50.884;14.818;2023-04-24T08:19:30;8.30;;;6.73;;
5923;SDS011;2987;50.884;14.818;2023-04-24T08:21:56;8.30;;;6.87;;
5923;SDS011;2987;50.884;14.818;2023-04-24T08:24:22;8.97;;;6.40;;
5923;SDS011;2987;50.884;14.818;2023-04-24T08:26:48;6.43;;;5.83;;
5923;SDS011;2987;50.884;14.818;2023-04-24T08:29:16;8.30;;;5.90;;
5923;SDS011;2987;50.884;14.818;2023-04-24T08:31:42;6.20;;;5.53;;
5923;SDS011;2987;50.884;14.818;2023-04-24T08:36:35;7.13;;;5.60;;
5923;SDS011;2987;50.884;14.818;2023-04-24T08:39:01;6.70;;;5.10;;
5923;SDS011;2987;50.884;14.818;2023-04-24T08:41:27;7.33;;;5.53;;
5923;SDS011;2987;50.884;14.818;2023-04-24T08:43:53;5.73;;;5.00;;
5923;SDS011;2987;50.884;14.818;2023-04-24T08:46:20;8.10;;;5.30;;
5923;SDS011;2987;50.884;14.818;2023-04-24T08:48:47;5.63;;;4.80;;
5923;SDS011;2987;50.884;14.818;2023-04-24T08:51:13;5.97;;;5.07;;
5923;SDS011;2987;50.884;14.818;2023-04-24T08:53:40;5.90;;;5.30;;
5923;SDS011;2987;50.884;14.818;2023-04-24T08:56:06;7.37;;;6.10;;
5923;SDS011;2987;50.884;14.818;2023-04-24T08:58:33;7.00;;;6.13;;
5923;SDS011;2987;50.884;14.818;2023-04-24T09:00:58;6.10;;;5.60;;
5923;SDS011;2987;50.884;14.818;2023-04-24T09:03:26;6.13;;;5.37;;
5923;SDS011;2987;50.884;14.818;2023-04-24T09:05:53;7.03;;;5.77;;
5923;SDS011;2987;50.884;14.818;2023-04-24T09:08:20;6.20;;;5.60;;
5923;SDS011;2987;50.884;14.818;2023-04-24T09:10:50;7.03;;;6.43;;
5923;SDS011;2987;50.884;14.818;2023-04-24T09:13:15;7.17;;;6.23;;
5923;SDS011;2987;50.884;14.818;2023-04-24T09:15:42;5.83;;;5.33;;
5923;SDS011;2987;50.884;14.818;2023-04-24T09:18:08;5.93;;;5.33;;
5923;SDS011;2987;50.884;14.818;2023-04-24T09:20:35;6.33;;;5.20;;
5923;SDS011;2987;50.884;14.818;2023-04-24T09:23:20;5.33;;;4.90;;
5923;SDS011;2987;50.884;14.818;2023-04-24T09:25:48;5.67;;;5.07;;
5923;SDS011;2987;50.884;14.818;2023-04-24T09:28:22;6.20;;;5.33;;
5923;SDS011;2987;50.884;14.818;2023-04-24T09:46:19;5.73;;;5.10;;
5923;SDS011;2987;50.884;14.818;2023-04-24T09:48:46;5.60;;;5.20;;
5923;SDS011;2987;50.884;14.818;2023-04-24T09:51:12;6.50;;;5.87;;
5923;SDS011;2987;50.884;14.818;2023-04-24T09:53:44;7.97;;;6.10;;
5923;SDS011;2987;50.884;14.818;2023-04-24T09:56:15;8.83;;;5.53;;
5923;SDS011;2987;50.884;14.818;2023-04-24T14:00:28;1.83;;;1.73;;
5923;SDS011;2987;50.884;14.818;2023-04-24T14:02:54;5.47;;;1.57;;
5923;SDS011;2987;50.884;14.818;2023-04-24T14:05:20;2.47;;;1.50;;
5923;SDS011;2987;50.884;14.818;2023-04-24T14:07:47;4.40;;;1.90;;
5923;SDS011;2987;50.884;14.818;2023-04-24T14:10:13;3.53;;;1.90;;
5923;SDS011;2987;50.884;14.818;2023-04-24T14:12:39;2.83;;;1.90;;
5923;SDS011;2987;50.884;14.818;2023-04-24T14:15:05;1.57;;;1.00;;
5923;SDS011;2987;50.884;14.818;2023-04-24T14:17:32;1.53;;;1.43;;
5923;SDS011;2987;50.884;14.818;2023-04-24T14:19:57;1.67;;;1.10;;
5923;SDS011;2987;50.884;14.818;2023-04-24T14:22:25;0.83;;;0.80;;
5923;SDS011;2987;50.884;14.818;2023-04-24T14:24:51;2.30;;;1.23;;
5923;SDS011;2987;50.884;14.818;2023-04-24T14:27:17;1.20;;;1.10;;
5923;SDS011;2987;50.884;14.818;2023-04-24T14:29:43;1.63;;;1.20;;
5923;SDS011;2987;50.884;14.818;2023-04-24T14:32:10;4.53;;;1.30;;
5923;SDS011;2987;50.884;14.818;2023-04-24T14:34:36;1.50;;;1.40;;
5923;SDS011;2987;50.884;14.818;2023-04-24T14:37:03;2.07;;;1.63;;
5923;SDS011;2987;50.884;14.818;2023-04-24T14:39:29;2.27;;;2.00;;
5923;SDS011;2987;50.884;14.818;2023-04-24T14:41:55;6.43;;;2.37;;
5923;SDS011;2987;50.884;14.818;2023-04-24T14:44:22;8.07;;;2.80;;
5923;SDS011;2987;50.884;14.818;2023-04-24T14:46:48;3.33;;;2.10;;
5923;SDS011;2987;50.884;14.818;2023-04-24T14:49:14;2.67;;;1.63;;
5923;SDS011;2987;50.884;14.818;2023-04-24T14:51:40;1.97;;;1.73;;
5923;SDS011;2987;50.884;14.818;2023-04-24T14:54:08;2.80;;;2.20;;
5923;SDS011;2987;50.884;14.818;2023-04-24T14:56:33;2.60;;;2.00;;
5923;SDS011;2987;50.884;14.818;2023-04-24T14:59:00;4.70;;;1.77;;
5923;SDS011;2987;50.884;14.818;2023-04-24T15:01:26;4.27;;;2.27;;
5923;SDS011;2987;50.884;14.818;2023-04-24T15:03:52;3.50;;;2.20;;
5923;SDS011;2987;50.884;14.818;2023-04-24T15:06:18;3.67;;;2.60;;
5923;SDS011;2987;50.884;14.818;2023-04-24T15:08:45;5.60;;;2.60;;
5923;SDS011;2987;50.884;14.818;2023-04-24T15:11:11;4.10;;;2.10;;
5923;SDS011;2987;50.884;14.818;2023-04-24T15:13:37;4.23;;;2.50;;
5923;SDS011;2987;50.884;14.818;2023-04-24T15:16:03;4.40;;;2.50;;
5923;SDS011;2987;50.884;14.818;2023-04-24T15:18:30;3.37;;;2.27;;
5923;SDS011;2987;50.884;14.818;2023-04-24T15:20:56;6.67;;;2.50;;
5923;SDS011;2987;50.884;14.818;2023-04-24T15:23:22;2.70;;;2.13;;
5923;SDS011;2987;50.884;14.818;2023-04-24T15:25:48;7.07;;;2.23;;
5923;SDS011;2987;50.884;14.818;2023-04-24T15:28:14;5.57;;;2.50;;
5923;SDS011;2987;50.884;14.818;2023-04-24T15:30:41;4.00;;;2.37;;
5923;SDS011;2987;50.884;14.818;2023-04-24T15:33:07;5.03;;;2.53;;
5923;SDS011;2987;50.884;14.818;2023-04-24T15:35:33;5.27;;;2.50;;
5923;SDS011;2987;50.884;14.818;2023-04-24T15:37:59;3.83;;;2.27;;
5923;SDS011;2987;50.884;14.818;2023-04-24T15:40:26;4.57;;;2.50;;
5923;SDS011;2987;50.884;14.818;2023-04-24T15:42:52;5.03;;;3.00;;
5923;SDS011;2987;50.884;14.818;2023-04-24T15:45:18;3.60;;;2.73;;
5923;SDS011;2987;50.884;14.818;2023-04-24T15:47:44;3.20;;;2.90;;
5923;SDS011;2987;50.884;14.818;2023-04-24T15:50:11;2.60;;;2.40;;
5923;SDS011;2987;50.884;14.818;2023-04-24T15:52:39;3.47;;;2.40;;
5923;SDS011;2987;50.884;14.818;2023-04-24T15:55:05;3.10;;;2.20;;
5923;SDS011;2987;50.884;14.818;2023-04-24T15:57:31;6.43;;;2.30;;
5923;SDS011;2987;50.884;14.818;2023-04-24T15:59:57;3.30;;;2.30;;
5923;SDS011;2987;50.884;14.818;2023-04-24T16:02:23;2.50;;;2.30;;
5923;SDS011;2987;50.884;14.818;2023-04-24T16:04:49;2.70;;;2.33;;
5923;SDS011;2987;50.884;14.818;2023-04-24T16:07:16;2.10;;;1.90;;
5923;SDS011;2987;50.884;14.818;2023-04-24T16:09:43;4.30;;;1.90;;
5923;SDS011;2987;50.884;14.818;2023-04-24T16:12:09;1.87;;;1.77;;
5923;SDS011;2987;50.884;14.818;2023-04-24T16:17:02;2.07;;;1.70;;
5923;SDS011;2987;50.884;14.818;2023-04-24T16:19:28;1.90;;;1.80;;
5923;SDS011;2987;50.884;14.818;2023-04-24T16:21:54;2.60;;;1.60;;
5923;SDS011;2987;50.884;14.818;2023-04-24T16:24:22;2.33;;;2.00;;
5923;SDS011;2987;50.884;14.818;2023-04-24T16:26:49;2.20;;;2.00;;
5923;SDS011;2987;50.884;14.818;2023-04-24T16:29:16;3.27;;;2.00;;
5923;SDS011;2987;50.884;14.818;2023-04-24T16:31:43;2.20;;;1.80;;
5923;SDS011;2987;50.884;14.818;2023-04-24T16:34:09;1.60;;;1.50;;
5923;SDS011;2987;50.884;14.818;2023-04-24T16:36:35;1.70;;;1.60;;
5923;SDS011;2987;50.884;14.818;2023-04-24T16:39:02;2.60;;;1.80;;
5923;SDS011;2987;50.884;14.818;2023-04-24T16:41:30;2.07;;;1.83;;
5923;SDS011;2987;50.884;14.818;2023-04-24T16:43:56;1.70;;;1.60;;
5923;SDS011;2987;50.884;14.818;2023-04-24T16:46:22;2.50;;;1.60;;
5923;SDS011;2987;50.884;14.818;2023-04-24T16:48:48;1.90;;;1.70;;
5923;SDS011;2987;50.884;14.818;2023-04-24T16:51:14;4.07;;;2.50;;
5923;SDS011;2987;50.884;14.818;2023-04-24T16:53:40;2.63;;;2.30;;
5923;SDS011;2987;50.884;14.818;2023-04-24T16:56:06;2.83;;;2.30;;
5923;SDS011;2987;50.884;14.818;2023-04-24T16:58:32;2.57;;;2.37;;
5923;SDS011;2987;50.884;14.818;2023-04-24T17:00:58;3.93;;;2.07;;
5923;SDS011;2987;50.884;14.818;2023-04-24T17:03:23;1.80;;;1.70;;
5923;SDS011;2987;50.884;14.818;2023-04-24T17:05:50;1.43;;;1.33;;
5923;SDS011;2987;50.884;14.818;2023-04-24T17:08:15;1.30;;;1.20;;
5923;SDS011;2987;50.884;14.818;2023-04-24T17:10:41;1.67;;;1.33;;
5923;SDS011;2987;50.884;14.818;2023-04-24T17:13:07;1.40;;;1.30;;
5923;SDS011;2987;50.884;14.818;2023-04-24T17:15:33;2.53;;;1.30;;
5923;SDS011;2987;50.884;14.818;2023-04-24T17:18:00;1.23;;;1.13;;
5923;SDS011;2987;50.884;14.818;2023-04-24T17:20:26;1.23;;;1.20;;
5923;SDS011;2987;50.884;14.818;2023-04-24T17:22:53;1.40;;;1.30;;
5923;SDS011;2987;50.884;14.818;2023-04-24T17:25:19;2.63;;;1.50;;
5923;SDS011;2987;50.884;14.818;2023-04-24T17:27:45;1.50;;;1.37;;
5923;SDS011;2987;50.884;14.818;2023-04-24T17:30:11;1.27;;;1.17;;
5923;SDS011;2987;50.884;14.818;2023-04-24T17:32:39;1.40;;;1.30;;
5923;SDS011;2987;50.884;14.818;2023-04-24T17:35:06;3.60;;;3.03;;
5923;SDS011;2987;50.884;14.818;2023-04-24T17:37:32;4.57;;;3.57;;
5923;SDS011;2987;50.884;14.818;2023-04-24T17:39:58;3.53;;;2.80;;
5923;SDS011;2987;50.884;14.818;2023-04-24T17:42:24;3.40;;;2.70;;
5923;SDS011;2987;50.884;14.818;2023-04-24T17:44:50;2.50;;;2.10;;
5923;SDS011;2987;50.884;14.818;2023-04-24T17:47:16;2.20;;;2.00;;
5923;SDS011;2987;50.884;14.818;2023-04-24T17:49:44;2.20;;;2.00;;
5923;SDS011;2987;50.884;14.818;2023-04-24T17:52:10;3.07;;;1.50;;
5923;SDS011;2987;50.884;14.818;2023-04-24T17:54:36;3.93;;;2.40;;
5923;SDS011;2987;50.884;14.818;2023-04-24T17:57:02;5.97;;;3.13;;
5923;SDS011;2987;50.884;14.818;2023-04-24T17:59:28;3.43;;;3.13;;
5923;SDS011;2987;50.884;14.818;2023-04-24T18:01:54;4.57;;;3.80;;
5923;SDS011;2987;50.884;14.818;2023-04-24T18:04:21;4.07;;;3.67;;
5923;SDS011;2987;50.884;14.818;2023-04-24T18:06:47;4.43;;;4.03;;
5923;SDS011;2987;50.884;14.818;2023-04-24T18:09:13;4.90;;;4.40;;
5923;SDS011;2987;50.884;14.818;2023-04-24T18:11:40;4.70;;;4.17;;
5923;SDS011;2987;50.884;14.818;2023-04-24T18:14:07;5.93;;;4.20;;
5923;SDS011;2987;50.884;14.818;2023-04-24T18:16:33;3.97;;;3.67;;
5923;SDS011;2987;50.884;14.818;2023-04-24T18:18:59;4.30;;;3.40;;
5923;SDS011;2987;50.884;14.818;2023-04-24T18:21:25;4.27;;;3.23;;
5923;SDS011;2987;50.884;14.818;2023-04-24T18:23:52;4.63;;;2.90;;
5923;SDS011;2987;50.884;14.818;2023-04-24T18:26:19;2.40;;;2.20;;
5923;SDS011;2987;50.884;14.818;2023-04-24T18:28:45;2.57;;;2.37;;
5923;SDS011;2987;50.884;14.818;2023-04-24T18:31:11;2.23;;;2.00;;
5923;SDS011;2987;50.884;14.818;2023-04-24T18:33:37;1.90;;;1.80;;
5923;SDS011;2987;50.884;14.818;2023-04-24T18:36:03;2.50;;;2.00;;
5923;SDS011;2987;50.884;14.818;2023-04-24T18:38:29;2.93;;;1.63;;
5923;SDS011;2987;50.884;14.818;2023-04-24T18:40:55;2.10;;;1.80;;
5923;SDS011;2987;50.884;14.818;2023-04-24T18:43:21;2.63;;;1.70;;
5923;SDS011;2987;50.884;14.818;2023-04-24T18:45:47;2.10;;;1.80;;
5923;SDS011;2987;50.884;14.818;2023-04-24T18:48:13;2.17;;;1.97;;
5923;SDS011;2987;50.884;14.818;2023-04-24T18:50:39;2.03;;;1.80;;
5923;SDS011;2987;50.884;14.818;2023-04-24T18:53:05;4.17;;;2.10;;
5923;SDS011;2987;50.884;14.818;2023-04-24T18:55:34;3.90;;;1.90;;
5923;SDS011;2987;50.884;14.818;2023-04-24T18:58:01;1.70;;;1.60;;
5923;SDS011;2987;50.884;14.818;2023-04-24T19:00:27;1.73;;;1.63;;
5923;SDS011;2987;50.884;14.818;2023-04-24T19:02:53;2.63;;;1.80;;
5923;SDS011;2987;50.884;14.818;2023-04-24T19:05:19;4.53;;;1.60;;
5923;SDS011;2987;50.884;14.818;2023-04-24T19:07:45;1.53;;;1.50;;
5923;SDS011;2987;50.884;14.818;2023-04-24T19:10:11;2.53;;;1.40;;
5923;SDS011;2987;50.884;14.818;2023-04-24T19:12:37;2.07;;;1.30;;
5923;SDS011;2987;50.884;14.818;2023-04-24T19:15:03;2.87;;;1.30;;
5923;SDS011;2987;50.884;14.818;2023-04-24T19:17:30;1.30;;;1.20;;
5923;SDS011;2987;50.884;14.818;2023-04-24T19:19:56;1.03;;;1.00;;
5923;SDS011;2987;50.884;14.818;2023-04-24T19:22:22;1.20;;;1.20;;
5923;SDS011;2987;50.884;14.818;2023-04-24T19:24:48;4.20;;;1.10;;
5923;SDS011;2987;50.884;14.818;2023-04-24T19:27:14;1.40;;;1.30;;
5923;SDS011;2987;50.884;14.818;2023-04-24T19:29:40;2.80;;;1.50;;
5923;SDS011;2987;50.884;14.818;2023-04-24T19:32:06;1.23;;;1.20;;
5923;SDS011;2987;50.884;14.818;2023-04-24T19:34:32;1.23;;;1.23;;
5923;SDS011;2987;50.884;14.818;2023-04-24T19:36:59;1.33;;;1.17;;
5923;SDS011;2987;50.884;14.818;2023-04-24T19:39:25;1.73;;;1.33;;
5923;SDS011;2987;50.884;14.818;2023-04-24T19:41:51;1.20;;;1.20;;
5923;SDS011;2987;50.884;14.818;2023-04-24T19:44:17;1.37;;;1.27;;
5923;SDS011;2987;50.884;14.818;2023-04-24T19:46:45;3.30;;;1.33;;
5923;SDS011;2987;50.884;14.818;2023-04-24T19:49:11;0.90;;;0.90;;
5923;SDS011;2987;50.884;14.818;2023-04-24T19:51:39;1.20;;;1.10;;
5923;SDS011;2987;50.884;14.818;2023-04-24T19:54:05;1.43;;;1.33;;
5923;SDS011;2987;50.884;14.818;2023-04-24T19:56:31;1.13;;;1.13;;
5923;SDS011;2987;50.884;14.818;2023-04-24T19:58:57;1.93;;;1.40;;
5923;SDS011;2987;50.884;14.818;2023-04-24T20:01:23;2.67;;;1.27;;
5923;SDS011;2987;50.884;14.818;2023-04-24T20:03:50;5.30;;;1.30;;
5923;SDS011;2987;50.884;14.818;2023-04-24T20:06:16;2.93;;;1.00;;
5923;SDS011;2987;50.884;14.818;2023-04-24T20:08:41;2.63;;;1.10;;
5923;SDS011;2987;50.884;14.818;2023-04-24T20:11:09;1.00;;;0.93;;
5923;SDS011;2987;50.884;14.818;2023-04-24T20:13:35;4.03;;;1.10;;
5923;SDS011;2987;50.884;14.818;2023-04-24T20:16:00;0.80;;;0.80;;
5923;SDS011;2987;50.884;14.818;2023-04-24T20:18:26;2.10;;;0.90;;
5923;SDS011;2987;50.884;14.818;2023-04-24T20:20:53;1.33;;;1.07;;
5923;SDS011;2987;50.884;14.818;2023-04-24T20:23:21;0.90;;;0.90;;
5923;SDS011;2987;50.884;14.818;2023-04-24T20:25:47;1.50;;;1.00;;
5923;SDS011;2987;50.884;14.818;2023-04-24T20:28:13;1.63;;;1.17;;
5923;SDS011;2987;50.884;14.818;2023-04-24T20:30:41;2.17;;;1.07;;
5923;SDS011;2987;50.884;14.818;2023-04-24T20:33:07;1.10;;;1.00;;
5923;SDS011;2987;50.884;14.818;2023-04-24T20:35:33;2.37;;;1.10;;
5923;SDS011;2987;50.884;14.818;2023-04-24T20:37:59;1.20;;;1.07;;
5923;SDS011;2987;50.884;14.818;2023-04-24T20:40:27;4.97;;;1.10;;
5923;SDS011;2987;50.884;14.818;2023-04-24T20:42:54;1.43;;;0.90;;
5923;SDS011;2987;50.884;14.818;2023-04-24T20:45:22;1.33;;;1.23;;
5923;SDS011;2987;50.884;14.818;2023-04-24T20:47:47;2.20;;;1.10;;
5923;SDS011;2987;50.884;14.818;2023-04-24T20:50:13;1.03;;;1.03;;
5923;SDS011;2987;50.884;14.818;2023-04-24T20:52:39;1.40;;;1.10;;
5923;SDS011;2987;50.884;14.818;2023-04-24T20:55:05;2.50;;;1.10;;
5923;SDS011;2987;50.884;14.818;2023-04-24T20:57:32;2.87;;;1.20;;
5923;SDS011;2987;50.884;14.818;2023-04-24T20:59:58;2.80;;;1.10;;
5923;SDS011;2987;50.884;14.818;2023-04-24T21:02:24;1.20;;;1.17;;
5923;SDS011;2987;50.884;14.818;2023-04-24T21:04:50;1.20;;;1.10;;
5923;SDS011;2987;50.884;14.818;2023-04-24T21:07:16;1.13;;;1.13;;
5923;SDS011;2987;50.884;14.818;2023-04-24T21:09:42;1.20;;;1.20;;
5923;SDS011;2987;50.884;14.818;2023-04-24T21:12:08;1.97;;;1.20;;
5923;SDS011;2987;50.884;14.818;2023-04-24T21:14:34;1.20;;;1.10;;
5923;SDS011;2987;50.884;14.818;2023-04-24T21:17:00;1.00;;;1.00;;
5923;SDS011;2987;50.884;14.818;2023-04-24T21:19:27;1.67;;;1.20;;
5923;SDS011;2987;50.884;14.818;2023-04-24T21:21:53;1.70;;;1.40;;
5923;SDS011;2987;50.884;14.818;2023-04-24T21:24:19;3.40;;;1.47;;
5923;SDS011;2987;50.884;14.818;2023-04-24T21:26:44;1.90;;;1.30;;
5923;SDS011;2987;50.884;14.818;2023-04-24T21:29:11;2.70;;;1.33;;
5923;SDS011;2987;50.884;14.818;2023-04-24T21:31:37;5.33;;;1.40;;
5923;SDS011;2987;50.884;14.818;2023-04-24T21:34:03;1.60;;;1.50;;
5923;SDS011;2987;50.884;14.818;2023-04-24T21:36:29;2.33;;;1.50;;
5923;SDS011;2987;50.884;14.818;2023-04-24T21:38:54;1.40;;;1.30;;
5923;SDS011;2987;50.884;14.818;2023-04-24T21:43:47;1.60;;;1.50;;
5923;SDS011;2987;50.884;14.818;2023-04-24T21:46:12;1.80;;;1.70;;